AirNav   Everest Fuels
 
 901 users online  

NV77 Freedom Helipad Heliport
Reno, Nevada, USA

GOING TO RENO?


FAA INFORMATION EFFECTIVE 10 SEPTEMBER 2020

Location

FAA Identifier: NV77
Lat/Long: 39-33-07.6770N 119-50-10.6940W
39-33.127950N 119-50.178233W
39.5521325,-119.8363039
(estimated)
Elevation: 4850 ft. / 1478 m (estimated)
From city: 2 miles NW of RENO, NV
Time zone: UTC -7 (UTC -8 during Standard Time)
Zip code: 89503

Heliport Operations

Heliport use: Private use. Permission required prior to landing
Activation date: 01/2019
Control tower: no
ARTCC: OAKLAND CENTER
FSS: RENO FLIGHT SERVICE STATION
Attendance: 
Segmented circle: no

Heliport Communications

WX ASOS at RNO (4 nm SE): 135.8 (775-324-6659)
WX AWOS-3 at RTS (7 nm N): 135.175 (775-677-0589)
WX AWOS-3PT at TRK (20 nm SW): 118.0 (530-587-4599)

Nearby radio navigation aids

VOR radial/distance  VOR name  Freq  Var
FMGr263/8.4MUSTANG VORTAC117.9016E
SWRr026/30.0SQUAW VALLEY VOR/DME113.2016E
HZNr256/38.9HAZEN VORTAC114.1017E

Heliport Services

Runway Information

Helipad H1

Dimensions: 40 x 40 ft. / 12 x 12 m
Surface: asphalt, in good condition
Latitude: 39-33.127950N
Longitude: 119-50.178233W
Elevation: 4850.0 ft.
Traffic pattern: leftleft
Markings: NSTD

Heliport Ownership and Management from official FAA records

Ownership: Privately-owned
Owner: G. DAVID ROBERTSON
7777 N. MCCARRAN BLVD
RENO, NV 89503
Phone (775) 329-5600
Manager: DAVID ROBERTSON
7777 N. MCCARRAN BLVD
RENO, NV 89503
Phone (775) 329-5600

Heliport Operational Statistics

Aircraft based on the field: 1
Helicopters: 1
    
Aircraft operations: avg 30/month *
100% local general aviation
* for 12-month period ending 31 March 2019

Additional Remarks

INGRESS 220 DEGS THRU 290 DEGS, EGRESS 040 DEGS THROUGH 110 DEGS.
AIR ATTACK, FIREFIGHTING, PUB SAFETY, AIR MED, POLICE, UTILITY WELCOME WITH PRIOR CDN AS FEASIBLE.
PPR FOR PVT OR COML OPRS; PLS CALL INBD.
FATO & TLOF UNMARKED DRIVEWAY ASPH PAD ADJ TO RESIDENCE & HEL HNGR.
CALL, TEXT, OR EMAIL WITH N-NR FOR CONDS.
(CONTACT TITLE) EMAIL: HILTS1155@YAHOO.COM

Instrument Procedures

There are no published instrument procedures at NV77.

Some nearby airports with instrument procedures:

KRNO - Reno/Tahoe International Airport (4 nm SE)
KRTS - Reno/Stead Airport (7 nm N)
KTRK - Truckee-Tahoe Airport (20 nm SW)
KCXP - Carson Airport (22 nm S)
KSPZ - Silver Springs Airport (29 nm E)
 
Loc | Ops | Rwys | IFR | FBO | Links
Com | Nav | Svcs | Stats | Notes
Aerial photo
No photo
 
Airport distance calculator
Flying to Freedom Helipad Heliport? Find the distance to fly.

From to NV77

Sunrise and sunset
Times for 25-Sep-2020
 Local
(UTC-7)
 Zulu
(UTC)
Morning civil twilight06:2513:25
Sunrise06:5213:52
Sunset18:5001:50
Evening civil twilight19:1602:16

Current date and time
Zulu (UTC)  26-Sep-2020 03:31:03
Local (UTC-7)  25-Sep-2020 20:31:03
 
METAR
KRNO 
5nm SE 
260255Z VRB04KT 10SM FEW200 FEW250 24/03 A3010 RMK AO2 SLP151 T02390033 53021
KRTS 
7nm N 
260315Z AUTO 28013KT 10SM CLR 19/02 A3016 RMK AO2
KTRK 
19nm SW 
260315Z AUTO 00000KT 10SM CLR 17/04 A3024 RMK AO2
TAF
KRNO 
5nm SE 
251720Z 2518/2618 VRB04KT P6SM SCT200 FM252300 29011G20KT P6SM FEW200 FM260600 30007KT P6SM SKC
KTRK 
19nm SW 
251120Z 2512/2612 VRB05KT P6SM FEW180 FM252100 28010KT P6SM SKC FM260300 VRB03KT P6SM SKC
NOTAMs
Click for the latest NOTAMs
NOTAMs are issued by the DoD/FAA and will open in a separate window not controlled by AirNav.

 

 
 

Would you like to see your business listed on this page?

 If your business provides an interesting product or service to pilots, flight crews, aircraft, or users of the Freedom Helipad Heliport, you should consider listing it here.  To start the listing process, click on the button below
 
Add a business
 

Other Pages about Freedom Helipad Heliport

Update a link
 
Copyright © AirNav, LLC. All rights reserved. Privacy Policy  Contact